sensor_id;sensor_type;location;lat;lon;timestamp;P1;durP1;ratioP1;P2;durP2;ratioP2
27375;SDS011;14844;51.302;6.354;2023-02-15T00:01:50;77.55;;;39.83;;
27375;SDS011;14844;51.302;6.354;2023-02-15T00:04:18;77.05;;;40.05;;
27375;SDS011;14844;51.302;6.354;2023-02-15T00:06:45;81.30;;;41.13;;
27375;SDS011;14844;51.302;6.354;2023-02-15T00:09:10;86.38;;;42.15;;
27375;SDS011;14844;51.302;6.354;2023-02-15T00:11:37;78.85;;;39.95;;
27375;SDS011;14844;51.302;6.354;2023-02-15T00:14:06;74.85;;;39.75;;
27375;SDS011;14844;51.302;6.354;2023-02-15T00:16:34;79.40;;;41.05;;
27375;SDS011;14844;51.302;6.354;2023-02-15T00:19:00;77.75;;;40.40;;
27375;SDS011;14844;51.302;6.354;2023-02-15T00:21:28;75.85;;;39.40;;
27375;SDS011;14844;51.302;6.354;2023-02-15T00:23:55;73.68;;;39.38;;
27375;SDS011;14844;51.302;6.354;2023-02-15T00:26:22;80.25;;;40.45;;
27375;SDS011;14844;51.302;6.354;2023-02-15T00:28:48;82.03;;;40.20;;
27375;SDS011;14844;51.302;6.354;2023-02-15T00:31:14;85.78;;;42.47;;
27375;SDS011;14844;51.302;6.354;2023-02-15T00:33:39;80.70;;;40.28;;
27375;SDS011;14844;51.302;6.354;2023-02-15T00:36:06;84.05;;;42.00;;
27375;SDS011;14844;51.302;6.354;2023-02-15T00:38:33;82.30;;;40.38;;
27375;SDS011;14844;51.302;6.354;2023-02-15T00:41:00;81.07;;;41.15;;
27375;SDS011;14844;51.302;6.354;2023-02-15T00:43:27;93.22;;;42.25;;
27375;SDS011;14844;51.302;6.354;2023-02-15T00:45:54;84.82;;;42.80;;
27375;SDS011;14844;51.302;6.354;2023-02-15T00:48:20;85.65;;;41.90;;
27375;SDS011;14844;51.302;6.354;2023-02-15T00:50:50;85.43;;;42.53;;
27375;SDS011;14844;51.302;6.354;2023-02-15T00:53:17;93.47;;;42.90;;
27375;SDS011;14844;51.302;6.354;2023-02-15T00:55:43;85.90;;;42.25;;
27375;SDS011;14844;51.302;6.354;2023-02-15T00:58:09;85.57;;;42.85;;
27375;SDS011;14844;51.302;6.354;2023-02-15T01:00:35;85.90;;;43.05;;
27375;SDS011;14844;51.302;6.354;2023-02-15T01:03:01;91.18;;;43.65;;
27375;SDS011;14844;51.302;6.354;2023-02-15T01:05:27;85.13;;;42.47;;
27375;SDS011;14844;51.302;6.354;2023-02-15T01:07:54;88.68;;;42.97;;
27375;SDS011;14844;51.302;6.354;2023-02-15T01:10:20;86.78;;;42.90;;
27375;SDS011;14844;51.302;6.354;2023-02-15T01:12:46;95.05;;;45.42;;
27375;SDS011;14844;51.302;6.354;2023-02-15T01:15:13;93.25;;;43.55;;
27375;SDS011;14844;51.302;6.354;2023-02-15T01:17:38;81.60;;;41.90;;
27375;SDS011;14844;51.302;6.354;2023-02-15T01:20:04;85.97;;;42.17;;
27375;SDS011;14844;51.302;6.354;2023-02-15T01:22:31;93.32;;;44.03;;
27375;SDS011;14844;51.302;6.354;2023-02-15T01:24:56;96.13;;;45.75;;
27375;SDS011;14844;51.302;6.354;2023-02-15T01:27:22;91.43;;;43.53;;
27375;SDS011;14844;51.302;6.354;2023-02-15T01:29:47;97.50;;;46.30;;
27375;SDS011;14844;51.302;6.354;2023-02-15T01:32:13;92.90;;;44.58;;
27375;SDS011;14844;51.302;6.354;2023-02-15T01:34:38;98.88;;;45.05;;
27375;SDS011;14844;51.302;6.354;2023-02-15T01:37:04;95.32;;;45.70;;
27375;SDS011;14844;51.302;6.354;2023-02-15T01:39:29;89.88;;;43.55;;
27375;SDS011;14844;51.302;6.354;2023-02-15T01:41:55;91.82;;;44.17;;
27375;SDS011;14844;51.302;6.354;2023-02-15T01:47:18;94.35;;;44.63;;
27375;SDS011;14844;51.302;6.354;2023-02-15T01:49:48;101.72;;;46.08;;
27375;SDS011;14844;51.302;6.354;2023-02-15T01:52:16;96.97;;;45.25;;
27375;SDS011;14844;51.302;6.354;2023-02-15T01:54:43;94.00;;;45.20;;
27375;SDS011;14844;51.302;6.354;2023-02-15T01:57:12;108.18;;;47.33;;
27375;SDS011;14844;51.302;6.354;2023-02-15T01:59:42;100.22;;;45.65;;
27375;SDS011;14844;51.302;6.354;2023-02-15T02:02:11;95.63;;;45.70;;
27375;SDS011;14844;51.302;6.354;2023-02-15T02:04:40;105.93;;;48.00;;
27375;SDS011;14844;51.302;6.354;2023-02-15T02:07:12;105.38;;;47.55;;
27375;SDS011;14844;51.302;6.354;2023-02-15T02:09:41;107.22;;;48.20;;
27375;SDS011;14844;51.302;6.354;2023-02-15T02:12:07;101.97;;;47.95;;
27375;SDS011;14844;51.302;6.354;2023-02-15T02:14:34;108.20;;;47.33;;
27375;SDS011;14844;51.302;6.354;2023-02-15T02:17:04;105.57;;;47.83;;
27375;SDS011;14844;51.302;6.354;2023-02-15T02:33:08;108.57;;;48.88;;
27375;SDS011;14844;51.302;6.354;2023-02-15T02:38:32;108.53;;;50.10;;
27375;SDS011;14844;51.302;6.354;2023-02-15T02:47:05;110.85;;;49.72;;
27375;SDS011;14844;51.302;6.354;2023-02-15T02:49:33;112.35;;;49.97;;
27375;SDS011;14844;51.302;6.354;2023-02-15T02:52:01;115.50;;;50.45;;
27375;SDS011;14844;51.302;6.354;2023-02-15T02:54:30;119.00;;;51.78;;
27375;SDS011;14844;51.302;6.354;2023-02-15T02:56:58;114.18;;;50.83;;
27375;SDS011;14844;51.302;6.354;2023-02-15T02:59:28;110.00;;;50.75;;
27375;SDS011;14844;51.302;6.354;2023-02-15T03:04:34;108.43;;;49.25;;
27375;SDS011;14844;51.302;6.354;2023-02-15T03:07:04;113.30;;;50.72;;
27375;SDS011;14844;51.302;6.354;2023-02-15T03:09:34;103.20;;;49.85;;
27375;SDS011;14844;51.302;6.354;2023-02-15T03:12:13;108.57;;;49.65;;
27375;SDS011;14844;51.302;6.354;2023-02-15T03:14:48;105.75;;;49.58;;
27375;SDS011;14844;51.302;6.354;2023-02-15T03:17:17;116.00;;;49.50;;
27375;SDS011;14844;51.302;6.354;2023-02-15T03:19:47;109.93;;;49.53;;
27375;SDS011;14844;51.302;6.354;2023-02-15T03:24:56;114.40;;;50.13;;
27375;SDS011;14844;51.302;6.354;2023-02-15T03:27:27;121.82;;;51.17;;
27375;SDS011;14844;51.302;6.354;2023-02-15T03:30:00;108.45;;;49.45;;
27375;SDS011;14844;51.302;6.354;2023-02-15T03:32:28;112.85;;;49.60;;
27375;SDS011;14844;51.302;6.354;2023-02-15T03:34:57;123.55;;;50.45;;
27375;SDS011;14844;51.302;6.354;2023-02-15T03:38:06;110.63;;;49.63;;
27375;SDS011;14844;51.302;6.354;2023-02-15T03:40:18;106.57;;;47.60;;
27375;SDS011;14844;51.302;6.354;2023-02-15T03:43:14;114.05;;;49.05;;
27375;SDS011;14844;51.302;6.354;2023-02-15T03:45:55;111.03;;;48.83;;
27375;SDS011;14844;51.302;6.354;2023-02-15T03:48:33;105.53;;;48.10;;
27375;SDS011;14844;51.302;6.354;2023-02-15T03:51:31;114.75;;;47.05;;
27375;SDS011;14844;51.302;6.354;2023-02-15T03:54:04;113.55;;;50.10;;
27375;SDS011;14844;51.302;6.354;2023-02-15T03:57:03;113.00;;;49.53;;
27375;SDS011;14844;51.302;6.354;2023-02-15T03:59:48;112.95;;;49.00;;
27375;SDS011;14844;51.302;6.354;2023-02-15T04:02:35;108.75;;;48.30;;
27375;SDS011;14844;51.302;6.354;2023-02-15T04:05:08;112.10;;;48.60;;
27375;SDS011;14844;51.302;6.354;2023-02-15T04:07:34;115.45;;;49.05;;
27375;SDS011;14844;51.302;6.354;2023-02-15T04:09:59;105.20;;;48.63;;
27375;SDS011;14844;51.302;6.354;2023-02-15T04:12:43;115.03;;;49.15;;
27375;SDS011;14844;51.302;6.354;2023-02-15T04:15:11;111.70;;;49.00;;
27375;SDS011;14844;51.302;6.354;2023-02-15T04:17:56;118.40;;;49.65;;
27375;SDS011;14844;51.302;6.354;2023-02-15T04:20:21;122.85;;;50.00;;
27375;SDS011;14844;51.302;6.354;2023-02-15T04:23:06;114.50;;;48.10;;
27375;SDS011;14844;51.302;6.354;2023-02-15T04:25:51;117.53;;;48.67;;
27375;SDS011;14844;51.302;6.354;2023-02-15T04:28:16;124.13;;;51.83;;
27375;SDS011;14844;51.302;6.354;2023-02-15T04:30:42;118.70;;;49.80;;
27375;SDS011;14844;51.302;6.354;2023-02-15T04:33:07;123.30;;;50.33;;
27375;SDS011;14844;51.302;6.354;2023-02-15T04:35:33;123.00;;;51.63;;
27375;SDS011;14844;51.302;6.354;2023-02-15T04:37:59;118.10;;;51.10;;
27375;SDS011;14844;51.302;6.354;2023-02-15T04:40:25;121.13;;;50.40;;
27375;SDS011;14844;51.302;6.354;2023-02-15T04:42:50;116.10;;;50.40;;
27375;SDS011;14844;51.302;6.354;2023-02-15T04:45:16;118.05;;;49.50;;
27375;SDS011;14844;51.302;6.354;2023-02-15T04:47:42;106.35;;;46.28;;
27375;SDS011;14844;51.302;6.354;2023-02-15T04:50:08;120.85;;;49.20;;
27375;SDS011;14844;51.302;6.354;2023-02-15T04:52:34;114.28;;;48.28;;
27375;SDS011;14844;51.302;6.354;2023-02-15T04:54:59;109.57;;;46.45;;
27375;SDS011;14844;51.302;6.354;2023-02-15T04:57:25;121.47;;;49.08;;
27375;SDS011;14844;51.302;6.354;2023-02-15T04:59:50;124.40;;;49.33;;
27375;SDS011;14844;51.302;6.354;2023-02-15T05:02:16;121.70;;;49.75;;
27375;SDS011;14844;51.302;6.354;2023-02-15T05:04:44;117.47;;;48.22;;
27375;SDS011;14844;51.302;6.354;2023-02-15T05:07:10;120.70;;;48.13;;
27375;SDS011;14844;51.302;6.354;2023-02-15T05:09:35;114.90;;;47.90;;
27375;SDS011;14844;51.302;6.354;2023-02-15T05:12:01;131.43;;;49.72;;
27375;SDS011;14844;51.302;6.354;2023-02-15T05:14:26;121.10;;;49.90;;
27375;SDS011;14844;51.302;6.354;2023-02-15T05:16:52;119.72;;;48.38;;
27375;SDS011;14844;51.302;6.354;2023-02-15T05:19:19;122.05;;;48.85;;
27375;SDS011;14844;51.302;6.354;2023-02-15T05:21:49;121.43;;;48.57;;
27375;SDS011;14844;51.302;6.354;2023-02-15T05:24:15;126.38;;;49.05;;
27375;SDS011;14844;51.302;6.354;2023-02-15T05:26:59;122.85;;;48.38;;
27375;SDS011;14844;51.302;6.354;2023-02-15T05:29:43;108.05;;;47.53;;
27375;SDS011;14844;51.302;6.354;2023-02-15T05:32:08;123.63;;;50.08;;
27375;SDS011;14844;51.302;6.354;2023-02-15T05:34:37;117.70;;;48.10;;
27375;SDS011;14844;51.302;6.354;2023-02-15T05:37:02;123.93;;;49.78;;
27375;SDS011;14844;51.302;6.354;2023-02-15T05:39:28;125.85;;;49.03;;
27375;SDS011;14844;51.302;6.354;2023-02-15T05:41:53;129.55;;;51.20;;
27375;SDS011;14844;51.302;6.354;2023-02-15T05:44:19;128.82;;;49.08;;
27375;SDS011;14844;51.302;6.354;2023-02-15T05:46:44;130.98;;;48.28;;
27375;SDS011;14844;51.302;6.354;2023-02-15T05:49:10;130.48;;;49.72;;
27375;SDS011;14844;51.302;6.354;2023-02-15T05:51:35;118.15;;;48.10;;
27375;SDS011;14844;51.302;6.354;2023-02-15T05:54:01;111.93;;;47.13;;
27375;SDS011;14844;51.302;6.354;2023-02-15T05:56:26;117.68;;;46.40;;
27375;SDS011;14844;51.302;6.354;2023-02-15T05:58:52;129.15;;;48.60;;
27375;SDS011;14844;51.302;6.354;2023-02-15T06:01:18;126.88;;;50.42;;
27375;SDS011;14844;51.302;6.354;2023-02-15T06:03:47;106.38;;;45.70;;
27375;SDS011;14844;51.302;6.354;2023-02-15T06:06:12;128.25;;;48.08;;
27375;SDS011;14844;51.302;6.354;2023-02-15T06:08:38;128.30;;;48.85;;
27375;SDS011;14844;51.302;6.354;2023-02-15T06:11:04;133.27;;;48.35;;
27375;SDS011;14844;51.302;6.354;2023-02-15T06:13:30;131.48;;;48.72;;
27375;SDS011;14844;51.302;6.354;2023-02-15T06:15:57;130.63;;;48.05;;
27375;SDS011;14844;51.302;6.354;2023-02-15T06:18:23;138.48;;;49.55;;
27375;SDS011;14844;51.302;6.354;2023-02-15T06:20:48;127.38;;;47.70;;
27375;SDS011;14844;51.302;6.354;2023-02-15T06:23:14;119.28;;;46.63;;
27375;SDS011;14844;51.302;6.354;2023-02-15T06:25:40;141.80;;;49.50;;
27375;SDS011;14844;51.302;6.354;2023-02-15T06:28:06;149.50;;;50.70;;
27375;SDS011;14844;51.302;6.354;2023-02-15T06:30:32;134.43;;;47.90;;
27375;SDS011;14844;51.302;6.354;2023-02-15T06:32:57;136.07;;;48.58;;
27375;SDS011;14844;51.302;6.354;2023-02-15T06:35:23;107.22;;;45.78;;
27375;SDS011;14844;51.302;6.354;2023-02-15T06:37:49;131.43;;;48.17;;
27375;SDS011;14844;51.302;6.354;2023-02-15T06:40:14;136.02;;;48.63;;
27375;SDS011;14844;51.302;6.354;2023-02-15T06:42:41;117.22;;;46.47;;
27375;SDS011;14844;51.302;6.354;2023-02-15T06:45:07;121.47;;;45.75;;
27375;SDS011;14844;51.302;6.354;2023-02-15T06:47:34;133.50;;;48.97;;
27375;SDS011;14844;51.302;6.354;2023-02-15T06:49:59;135.70;;;50.08;;
27375;SDS011;14844;51.302;6.354;2023-02-15T06:52:25;129.35;;;48.17;;
27375;SDS011;14844;51.302;6.354;2023-02-15T06:54:51;147.38;;;50.72;;
27375;SDS011;14844;51.302;6.354;2023-02-15T06:57:16;147.73;;;48.60;;
27375;SDS011;14844;51.302;6.354;2023-02-15T06:59:42;135.90;;;49.40;;
27375;SDS011;14844;51.302;6.354;2023-02-15T07:02:11;125.43;;;47.15;;
27375;SDS011;14844;51.302;6.354;2023-02-15T07:04:37;130.88;;;48.40;;
27375;SDS011;14844;51.302;6.354;2023-02-15T07:07:03;141.68;;;48.80;;
27375;SDS011;14844;51.302;6.354;2023-02-15T07:09:28;134.32;;;49.30;;
27375;SDS011;14844;51.302;6.354;2023-02-15T07:15:25;126.03;;;48.03;;
27375;SDS011;14844;51.302;6.354;2023-02-15T07:17:54;127.10;;;47.92;;
27375;SDS011;14844;51.302;6.354;2023-02-15T07:20:20;135.88;;;48.38;;
27375;SDS011;14844;51.302;6.354;2023-02-15T07:22:47;138.52;;;49.85;;
27375;SDS011;14844;51.302;6.354;2023-02-15T07:25:14;128.52;;;49.90;;
27375;SDS011;14844;51.302;6.354;2023-02-15T07:27:39;120.80;;;49.10;;
27375;SDS011;14844;51.302;6.354;2023-02-15T07:30:06;122.38;;;50.15;;
27375;SDS011;14844;51.302;6.354;2023-02-15T07:32:33;122.75;;;49.03;;
27375;SDS011;14844;51.302;6.354;2023-02-15T07:35:00;125.20;;;50.85;;
27375;SDS011;14844;51.302;6.354;2023-02-15T07:37:26;109.22;;;47.47;;
27375;SDS011;14844;51.302;6.354;2023-02-15T07:39:52;112.22;;;47.47;;
27375;SDS011;14844;51.302;6.354;2023-02-15T07:42:18;114.65;;;48.15;;
27375;SDS011;14844;51.302;6.354;2023-02-15T07:44:44;112.85;;;48.00;;
27375;SDS011;14844;51.302;6.354;2023-02-15T07:47:10;116.82;;;48.80;;
27375;SDS011;14844;51.302;6.354;2023-02-15T07:49:37;112.47;;;48.22;;
27375;SDS011;14844;51.302;6.354;2023-02-15T07:52:03;107.53;;;46.50;;
27375;SDS011;14844;51.302;6.354;2023-02-15T07:54:28;107.38;;;46.63;;
27375;SDS011;14844;51.302;6.354;2023-02-15T07:56:54;101.15;;;45.78;;
27375;SDS011;14844;51.302;6.354;2023-02-15T07:59:20;101.53;;;46.40;;
27375;SDS011;14844;51.302;6.354;2023-02-15T08:01:48;103.72;;;46.20;;
27375;SDS011;14844;51.302;6.354;2023-02-15T08:04:13;95.53;;;45.05;;
27375;SDS011;14844;51.302;6.354;2023-02-15T08:06:41;93.60;;;44.15;;
27375;SDS011;14844;51.302;6.354;2023-02-15T08:09:08;96.82;;;44.97;;
27375;SDS011;14844;51.302;6.354;2023-02-15T08:11:35;98.57;;;45.72;;
27375;SDS011;14844;51.302;6.354;2023-02-15T08:14:06;87.85;;;43.50;;
27375;SDS011;14844;51.302;6.354;2023-02-15T08:16:49;86.85;;;43.38;;
27375;SDS011;14844;51.302;6.354;2023-02-15T08:19:21;86.03;;;42.15;;
27375;SDS011;14844;51.302;6.354;2023-02-15T08:21:54;76.20;;;40.60;;
27375;SDS011;14844;51.302;6.354;2023-02-15T08:24:25;74.43;;;40.97;;
27375;SDS011;14844;51.302;6.354;2023-02-15T08:26:52;76.22;;;39.92;;
27375;SDS011;14844;51.302;6.354;2023-02-15T08:29:19;78.32;;;41.20;;
27375;SDS011;14844;51.302;6.354;2023-02-15T08:31:47;67.53;;;37.45;;
27375;SDS011;14844;51.302;6.354;2023-02-15T08:34:40;66.55;;;37.45;;
27375;SDS011;14844;51.302;6.354;2023-02-15T08:37:06;62.47;;;36.25;;
27375;SDS011;14844;51.302;6.354;2023-02-15T08:39:32;64.05;;;36.92;;
27375;SDS011;14844;51.302;6.354;2023-02-15T08:42:01;63.47;;;35.80;;
27375;SDS011;14844;51.302;6.354;2023-02-15T08:44:28;62.78;;;35.40;;
27375;SDS011;14844;51.302;6.354;2023-02-15T08:46:54;56.30;;;34.10;;
27375;SDS011;14844;51.302;6.354;2023-02-15T08:49:22;52.35;;;32.83;;
27375;SDS011;14844;51.302;6.354;2023-02-15T08:51:49;52.83;;;31.70;;
27375;SDS011;14844;51.302;6.354;2023-02-15T08:54:16;51.38;;;31.17;;
27375;SDS011;14844;51.302;6.354;2023-02-15T08:56:43;51.67;;;31.42;;
27375;SDS011;14844;51.302;6.354;2023-02-15T08:59:14;50.15;;;29.92;;
27375;SDS011;14844;51.302;6.354;2023-02-15T09:01:46;44.60;;;28.63;;
27375;SDS011;14844;51.302;6.354;2023-02-15T09:04:12;46.05;;;29.35;;
27375;SDS011;14844;51.302;6.354;2023-02-15T09:06:40;42.78;;;27.25;;
27375;SDS011;14844;51.302;6.354;2023-02-15T09:09:07;47.10;;;29.33;;
27375;SDS011;14844;51.302;6.354;2023-02-15T09:11:37;46.45;;;28.98;;
27375;SDS011;14844;51.302;6.354;2023-02-15T09:14:12;46.72;;;27.90;;
27375;SDS011;14844;51.302;6.354;2023-02-15T09:16:45;43.67;;;26.73;;
27375;SDS011;14844;51.302;6.354;2023-02-15T09:19:17;46.85;;;26.50;;
27375;SDS011;14844;51.302;6.354;2023-02-15T09:21:44;40.67;;;26.10;;
27375;SDS011;14844;51.302;6.354;2023-02-15T09:24:11;41.78;;;26.98;;
27375;SDS011;14844;51.302;6.354;2023-02-15T09:26:38;46.80;;;25.65;;
27375;SDS011;14844;51.302;6.354;2023-02-15T09:29:06;41.17;;;26.23;;
27375;SDS011;14844;51.302;6.354;2023-02-15T09:31:33;42.45;;;26.88;;
27375;SDS011;14844;51.302;6.354;2023-02-15T09:34:02;42.42;;;25.02;;
27375;SDS011;14844;51.302;6.354;2023-02-15T09:36:38;39.10;;;25.17;;
27375;SDS011;14844;51.302;6.354;2023-02-15T09:39:10;42.88;;;24.77;;
27375;SDS011;14844;51.302;6.354;2023-02-15T09:55:31;36.38;;;23.83;;
27375;SDS011;14844;51.302;6.354;2023-02-15T10:01:15;35.35;;;22.90;;
27375;SDS011;14844;51.302;6.354;2023-02-15T10:09:38;38.90;;;22.83;;
27375;SDS011;14844;51.302;6.354;2023-02-15T10:26:20;33.45;;;22.45;;
27375;SDS011;14844;51.302;6.354;2023-02-15T10:31:53;32.58;;;21.90;;
27375;SDS011;14844;51.302;6.354;2023-02-15T10:34:50;34.05;;;21.92;;
27375;SDS011;14844;51.302;6.354;2023-02-15T10:37:37;35.85;;;21.25;;
27375;SDS011;14844;51.302;6.354;2023-02-15T10:40:20;34.63;;;22.33;;
27375;SDS011;14844;51.302;6.354;2023-02-15T10:43:05;36.85;;;21.58;;
27375;SDS011;14844;51.302;6.354;2023-02-15T10:48:38;35.03;;;21.20;;
27375;SDS011;14844;51.302;6.354;2023-02-15T10:51:27;31.17;;;21.33;;
27375;SDS011;14844;51.302;6.354;2023-02-15T10:56:48;35.90;;;21.88;;
27375;SDS011;14844;51.302;6.354;2023-02-15T10:59:45;32.42;;;21.15;;
27375;SDS011;14844;51.302;6.354;2023-02-15T11:05:07;37.90;;;20.67;;
27375;SDS011;14844;51.302;6.354;2023-02-15T11:07:51;31.38;;;21.70;;
27375;SDS011;14844;51.302;6.354;2023-02-15T11:10:26;33.28;;;20.85;;
27375;SDS011;14844;51.302;6.354;2023-02-15T11:13:14;40.75;;;21.33;;
27375;SDS011;14844;51.302;6.354;2023-02-15T11:15:56;34.70;;;21.73;;
27375;SDS011;14844;51.302;6.354;2023-02-15T11:18:28;33.42;;;21.88;;
27375;SDS011;14844;51.302;6.354;2023-02-15T11:21:25;32.45;;;20.90;;
27375;SDS011;14844;51.302;6.354;2023-02-15T11:23:53;32.78;;;21.02;;
27375;SDS011;14844;51.302;6.354;2023-02-15T11:26:30;34.47;;;22.05;;
27375;SDS011;14844;51.302;6.354;2023-02-15T11:29:07;32.58;;;21.02;;
27375;SDS011;14844;51.302;6.354;2023-02-15T11:31:54;33.28;;;20.15;;
27375;SDS011;14844;51.302;6.354;2023-02-15T11:34:27;29.42;;;20.45;;
27375;SDS011;14844;51.302;6.354;2023-02-15T11:36:59;31.42;;;20.88;;
27375;SDS011;14844;51.302;6.354;2023-02-15T11:39:31;32.08;;;20.33;;
27375;SDS011;14844;51.302;6.354;2023-02-15T11:42:00;31.33;;;20.73;;
27375;SDS011;14844;51.302;6.354;2023-02-15T11:44:40;31.35;;;19.80;;
27375;SDS011;14844;51.302;6.354;2023-02-15T11:47:27;28.98;;;19.85;;
27375;SDS011;14844;51.302;6.354;2023-02-15T11:49:53;35.70;;;19.38;;
27375;SDS011;14844;51.302;6.354;2023-02-15T11:52:23;36.30;;;20.13;;
27375;SDS011;14844;51.302;6.354;2023-02-15T11:54:50;33.42;;;20.45;;
27375;SDS011;14844;51.302;6.354;2023-02-15T11:57:27;29.65;;;19.20;;
27375;SDS011;14844;51.302;6.354;2023-02-15T12:02:30;29.17;;;18.92;;
27375;SDS011;14844;51.302;6.354;2023-02-15T12:04:58;37.70;;;20.50;;
27375;SDS011;14844;51.302;6.354;2023-02-15T12:07:27;34.13;;;19.67;;
27375;SDS011;14844;51.302;6.354;2023-02-15T12:12:41;28.30;;;18.65;;
27375;SDS011;14844;51.302;6.354;2023-02-15T12:15:07;29.83;;;18.67;;
27375;SDS011;14844;51.302;6.354;2023-02-15T12:17:50;26.58;;;18.65;;
27375;SDS011;14844;51.302;6.354;2023-02-15T12:22:51;31.85;;;18.27;;
27375;SDS011;14844;51.302;6.354;2023-02-15T12:25:21;27.73;;;17.92;;
27375;SDS011;14844;51.302;6.354;2023-02-15T12:27:50;31.15;;;18.33;;
27375;SDS011;14844;51.302;6.354;2023-02-15T12:30:32;27.83;;;18.65;;
27375;SDS011;14844;51.302;6.354;2023-02-15T12:36:02;25.50;;;17.27;;
27375;SDS011;14844;51.302;6.354;2023-02-15T12:38:34;27.63;;;17.88;;
27375;SDS011;14844;51.302;6.354;2023-02-15T12:41:04;31.42;;;18.30;;
27375;SDS011;14844;51.302;6.354;2023-02-15T12:43:46;28.58;;;18.40;;
27375;SDS011;14844;51.302;6.354;2023-02-15T12:46:13;28.38;;;18.17;;
27375;SDS011;14844;51.302;6.354;2023-02-15T12:49:16;34.60;;;18.67;;
27375;SDS011;14844;51.302;6.354;2023-02-15T12:51:48;28.38;;;17.92;;
27375;SDS011;14844;51.302;6.354;2023-02-15T12:59:54;30.30;;;17.63;;
27375;SDS011;14844;51.302;6.354;2023-02-15T13:02:30;25.70;;;17.23;;
27375;SDS011;14844;51.302;6.354;2023-02-15T13:05:07;29.70;;;18.38;;
27375;SDS011;14844;51.302;6.354;2023-02-15T13:07:44;28.83;;;18.23;;
27375;SDS011;14844;51.302;6.354;2023-02-15T13:10:21;26.00;;;17.40;;
27375;SDS011;14844;51.302;6.354;2023-02-15T13:12:54;31.45;;;18.13;;
27375;SDS011;14844;51.302;6.354;2023-02-15T13:15:41;28.23;;;19.02;;
27375;SDS011;14844;51.302;6.354;2023-02-15T13:18:29;26.88;;;18.15;;
27375;SDS011;14844;51.302;6.354;2023-02-15T13:21:05;25.73;;;18.10;;
27375;SDS011;14844;51.302;6.354;2023-02-15T13:23:35;27.25;;;17.75;;
27375;SDS011;14844;51.302;6.354;2023-02-15T13:26:03;31.30;;;17.02;;
27375;SDS011;14844;51.302;6.354;2023-02-15T13:28:37;26.60;;;16.73;;
27375;SDS011;14844;51.302;6.354;2023-02-15T13:31:19;27.02;;;17.48;;
27375;SDS011;14844;51.302;6.354;2023-02-15T13:33:53;31.40;;;18.90;;
27375;SDS011;14844;51.302;6.354;2023-02-15T13:50:19;28.98;;;18.63;;
27375;SDS011;14844;51.302;6.354;2023-02-15T13:52:51;27.70;;;18.02;;
27375;SDS011;14844;51.302;6.354;2023-02-15T13:55:31;31.05;;;18.92;;
27375;SDS011;14844;51.302;6.354;2023-02-15T14:04:42;37.97;;;19.40;;
27375;SDS011;14844;51.302;6.354;2023-02-15T14:20:41;29.58;;;19.25;;
27375;SDS011;14844;51.302;6.354;2023-02-15T14:23:31;31.40;;;19.08;;
27375;SDS011;14844;51.302;6.354;2023-02-15T14:31:33;27.80;;;17.55;;
27375;SDS011;14844;51.302;6.354;2023-02-15T14:34:07;27.92;;;17.88;;
27375;SDS011;14844;51.302;6.354;2023-02-15T14:37:13;31.08;;;18.02;;
27375;SDS011;14844;51.302;6.354;2023-02-15T14:39:47;28.63;;;17.05;;
27375;SDS011;14844;51.302;6.354;2023-02-15T14:42:56;25.88;;;16.35;;
27375;SDS011;14844;51.302;6.354;2023-02-15T14:45:49;29.63;;;16.73;;
27375;SDS011;14844;51.302;6.354;2023-02-15T14:50:54;31.02;;;17.38;;
27375;SDS011;14844;51.302;6.354;2023-02-15T15:01:27;28.77;;;16.52;;
27375;SDS011;14844;51.302;6.354;2023-02-15T15:03:59;25.05;;;17.05;;
27375;SDS011;14844;51.302;6.354;2023-02-15T15:09:37;28.00;;;16.85;;
27375;SDS011;14844;51.302;6.354;2023-02-15T15:12:14;28.33;;;16.92;;
27375;SDS011;14844;51.302;6.354;2023-02-15T15:15:03;26.55;;;16.80;;
27375;SDS011;14844;51.302;6.354;2023-02-15T15:22:38;27.88;;;17.15;;
27375;SDS011;14844;51.302;6.354;2023-02-15T15:25:10;30.13;;;17.60;;
27375;SDS011;14844;51.302;6.354;2023-02-15T15:27:55;27.30;;;17.17;;
27375;SDS011;14844;51.302;6.354;2023-02-15T15:41:32;31.45;;;19.13;;
27375;SDS011;14844;51.302;6.354;2023-02-15T15:46:57;36.10;;;18.23;;
27375;SDS011;14844;51.302;6.354;2023-02-15T15:49:31;29.83;;;16.67;;
27375;SDS011;14844;51.302;6.354;2023-02-15T15:52:02;30.15;;;18.83;;
27375;SDS011;14844;51.302;6.354;2023-02-15T15:54:37;35.75;;;19.17;;
27375;SDS011;14844;51.302;6.354;2023-02-15T15:57:04;29.15;;;18.83;;
27375;SDS011;14844;51.302;6.354;2023-02-15T15:59:36;33.35;;;18.90;;
27375;SDS011;14844;51.302;6.354;2023-02-15T16:02:11;38.42;;;19.88;;
27375;SDS011;14844;51.302;6.354;2023-02-15T16:04:44;38.15;;;20.25;;
27375;SDS011;14844;51.302;6.354;2023-02-15T16:09:41;35.67;;;20.27;;
27375;SDS011;14844;51.302;6.354;2023-02-15T16:12:23;31.13;;;19.60;;
27375;SDS011;14844;51.302;6.354;2023-02-15T16:14:52;30.73;;;19.67;;
27375;SDS011;14844;51.302;6.354;2023-02-15T16:17:23;34.88;;;20.95;;
27375;SDS011;14844;51.302;6.354;2023-02-15T16:19:50;37.70;;;21.23;;
27375;SDS011;14844;51.302;6.354;2023-02-15T16:22:35;35.53;;;21.02;;
27375;SDS011;14844;51.302;6.354;2023-02-15T16:27:56;38.42;;;20.75;;
27375;SDS011;14844;51.302;6.354;2023-02-15T16:32:57;41.63;;;25.27;;
27375;SDS011;14844;51.302;6.354;2023-02-15T16:35:36;36.17;;;21.90;;
27375;SDS011;14844;51.302;6.354;2023-02-15T16:38:04;44.17;;;24.10;;
27375;SDS011;14844;51.302;6.354;2023-02-15T16:43:20;48.00;;;26.27;;
27375;SDS011;14844;51.302;6.354;2023-02-15T16:45:51;50.15;;;26.23;;
27375;SDS011;14844;51.302;6.354;2023-02-15T16:48:21;44.42;;;25.20;;
27375;SDS011;14844;51.302;6.354;2023-02-15T16:50:58;41.85;;;23.55;;
27375;SDS011;14844;51.302;6.354;2023-02-15T16:53:26;38.60;;;23.45;;
27375;SDS011;14844;51.302;6.354;2023-02-15T16:55:53;40.58;;;22.33;;
27375;SDS011;14844;51.302;6.354;2023-02-15T16:58:28;43.03;;;22.55;;
27375;SDS011;14844;51.302;6.354;2023-02-15T17:00:58;41.78;;;21.58;;
27375;SDS011;14844;51.302;6.354;2023-02-15T17:03:26;42.95;;;22.13;;
27375;SDS011;14844;51.302;6.354;2023-02-15T17:05:56;35.33;;;21.88;;
27375;SDS011;14844;51.302;6.354;2023-02-15T17:08:32;41.78;;;22.85;;
27375;SDS011;14844;51.302;6.354;2023-02-15T17:13:36;41.90;;;23.33;;
27375;SDS011;14844;51.302;6.354;2023-02-15T17:18:31;43.45;;;23.30;;
27375;SDS011;14844;51.302;6.354;2023-02-15T17:21:12;37.33;;;22.70;;
27375;SDS011;14844;51.302;6.354;2023-02-15T17:23:44;42.50;;;23.17;;
27375;SDS011;14844;51.302;6.354;2023-02-15T17:26:16;47.10;;;25.77;;
27375;SDS011;14844;51.302;6.354;2023-02-15T17:28:45;51.97;;;28.98;;
27375;SDS011;14844;51.302;6.354;2023-02-15T17:31:13;48.50;;;29.23;;
27375;SDS011;14844;51.302;6.354;2023-02-15T17:33:42;44.25;;;25.48;;
27375;SDS011;14844;51.302;6.354;2023-02-15T17:36:09;41.90;;;23.25;;
27375;SDS011;14844;51.302;6.354;2023-02-15T17:38:39;38.30;;;22.85;;
27375;SDS011;14844;51.302;6.354;2023-02-15T17:41:23;37.17;;;23.25;;
27375;SDS011;14844;51.302;6.354;2023-02-15T17:43:50;44.75;;;24.33;;
27375;SDS011;14844;51.302;6.354;2023-02-15T17:46:16;37.40;;;23.33;;